AIC2CC VECC-VTBS
Flight info
| Callsign | AIC2CC |
|---|---|
| Flight time | 2h 12m |
| Altitude | 39000 |
| Route | DOPID2C DOPID P646 TARED DCT WILLA WILLA1C |
| Aircraft | A20N/M-SDE2E3FGHIRWXY/LB1 |
Departure
| Time | 2026-05-04 10:56 |
|---|---|
| Airport | Netaji Subhash Chandra Bose International Airport (VECC) |
Arrival
| Time | 2026-05-04 13:09 |
|---|---|
| Airport | Suvarnabhumi Airport (VTBS) |
| Time | Latitude | Longitude | Altitude | Speed | Heading |
|---|---|---|---|---|---|
| 2026-05-04 10:46 | 22.64088 | 88.44024 | 28 ft | 0 kts | 317° |
| 2026-05-04 10:46 | 22.64079 | 88.44033 | 32 ft | 2 kts | 317° |
| 2026-05-04 10:46 | 22.64067 | 88.44045 | 26 ft | 2 kts | 317° |
| 2026-05-04 10:47 | 22.64055 | 88.44057 | 28 ft | 2 kts | 318° |
| 2026-05-04 10:47 | 22.64042 | 88.44070 | 30 ft | 2 kts | 319° |
| 2026-05-04 10:47 | 22.64029 | 88.44080 | 28 ft | 2 kts | 340° |
| 2026-05-04 10:47 | 22.64013 | 88.44080 | 28 ft | 2 kts | 43° |
| 2026-05-04 10:49 | 22.63997 | 88.44056 | 28 ft | 0 kts | 67° |
| 2026-05-04 10:49 | 22.64002 | 88.44068 | 28 ft | 5 kts | 66° |
| 2026-05-04 10:50 | 22.64017 | 88.44135 | 28 ft | 12 kts | 96° |
| 2026-05-04 10:51 | 22.64978 | 88.44518 | 27 ft | 61 kts | 6° |
| 2026-05-04 10:52 | 22.65395 | 88.44567 | 29 ft | 59 kts | 6° |
| 2026-05-04 10:52 | 22.65795 | 88.44613 | 30 ft | 57 kts | 6° |
| 2026-05-04 10:52 | 22.66184 | 88.44659 | 27 ft | 56 kts | 7° |
| 2026-05-04 10:54 | 22.66610 | 88.44922 | 26 ft | 8 kts | 173° |
| 2026-05-04 10:54 | 22.66450 | 88.44898 | 28 ft | 54 kts | 184° |
| 2026-05-04 10:56 | 22.60782 | 88.48156 | 2290 ft | 201 kts | 130° |
| 2026-05-04 10:56 | 22.59834 | 88.49396 | 2617 ft | 226 kts | 130° |
| 2026-05-04 10:56 | 22.58800 | 88.50785 | 3105 ft | 248 kts | 129° |
| 2026-05-04 10:57 | 22.57681 | 88.52321 | 3685 ft | 270 kts | 129° |
| 2026-05-04 10:57 | 22.56508 | 88.53947 | 4578 ft | 279 kts | 129° |
| 2026-05-04 10:57 | 22.55297 | 88.55629 | 4732 ft | 282 kts | 129° |
| 2026-05-04 10:57 | 22.54099 | 88.57289 | 4830 ft | 281 kts | 129° |
| 2026-05-04 10:58 | 22.52890 | 88.58963 | 4941 ft | 282 kts | 129° |
| 2026-05-04 10:58 | 22.51680 | 88.60636 | 5046 ft | 283 kts | 129° |
| 2026-05-04 10:58 | 22.50467 | 88.62311 | 5152 ft | 284 kts | 129° |
| 2026-05-04 10:58 | 22.49662 | 88.63424 | 5226 ft | 283 kts | 129° |
| 2026-05-04 10:59 | 22.48049 | 88.65652 | 5370 ft | 284 kts | 129° |
| 2026-05-04 10:59 | 22.46829 | 88.67337 | 5477 ft | 286 kts | 130° |
| 2026-05-04 10:59 | 22.45433 | 88.68847 | 5572 ft | 283 kts | 145° |
| 2026-05-04 10:59 | 22.43739 | 88.69913 | 5673 ft | 282 kts | 158° |
| 2026-05-04 11:00 | 22.42527 | 88.70496 | 5741 ft | 282 kts | 158° |
| 2026-05-04 11:01 | 22.29992 | 88.76688 | 6411 ft | 285 kts | 158° |
| 2026-05-04 11:02 | 22.27601 | 88.77871 | 6534 ft | 285 kts | 158° |
| 2026-05-04 11:02 | 22.25789 | 88.78766 | 6630 ft | 286 kts | 158° |
| 2026-05-04 11:05 | 22.00785 | 88.91097 | 8041 ft | 295 kts | 158° |
| 2026-05-04 11:06 | 21.98932 | 88.92008 | 8797 ft | 296 kts | 158° |
| 2026-05-04 11:06 | 21.97056 | 88.92932 | 9803 ft | 298 kts | 158° |
| 2026-05-04 11:06 | 21.95138 | 88.93874 | 10383 ft | 314 kts | 158° |
| 2026-05-04 11:06 | 21.93067 | 88.94887 | 10695 ft | 338 kts | 158° |
| 2026-05-04 11:08 | 21.76965 | 89.02798 | 15793 ft | 374 kts | 158° |
| 2026-05-04 11:10 | 21.59718 | 89.11244 | 19894 ft | 403 kts | 158° |
| 2026-05-04 11:12 | 21.41270 | 89.20255 | 23419 ft | 430 kts | 158° |
| 2026-05-04 11:12 | 21.38545 | 89.21584 | 23845 ft | 432 kts | 158° |
| 2026-05-04 11:12 | 21.35800 | 89.22923 | 24272 ft | 435 kts | 158° |
| 2026-05-04 11:12 | 21.33033 | 89.24272 | 24696 ft | 437 kts | 159° |
| 2026-05-04 11:13 | 21.30176 | 89.25385 | 25105 ft | 435 kts | 169° |
| 2026-05-04 11:13 | 21.27197 | 89.25878 | 25489 ft | 433 kts | 181° |
| 2026-05-04 11:13 | 21.24193 | 89.25736 | 25889 ft | 430 kts | 192° |
| 2026-05-04 11:13 | 21.21228 | 89.25243 | 26287 ft | 432 kts | 192° |
| 2026-05-04 11:14 | 21.18244 | 89.24750 | 26677 ft | 435 kts | 192° |
| 2026-05-04 11:14 | 21.15243 | 89.24260 | 27065 ft | 437 kts | 192° |
| 2026-05-04 11:14 | 21.12271 | 89.23777 | 27436 ft | 439 kts | 192° |
| 2026-05-04 11:16 | 20.90722 | 89.23903 | 29767 ft | 477 kts | 154° |
| 2026-05-04 11:16 | 20.87987 | 89.25971 | 30054 ft | 486 kts | 142° |
| 2026-05-04 11:16 | 20.85654 | 89.28614 | 30326 ft | 493 kts | 131° |
| 2026-05-04 11:17 | 20.83611 | 89.31582 | 30622 ft | 496 kts | 128° |
| 2026-05-04 11:17 | 20.81632 | 89.34617 | 30912 ft | 498 kts | 127° |
| 2026-05-04 11:19 | 20.67304 | 89.55361 | 33513 ft | 494 kts | 129° |
| 2026-05-04 11:19 | 20.65245 | 89.58289 | 33845 ft | 493 kts | 129° |
| 2026-05-04 11:19 | 20.63187 | 89.61215 | 34154 ft | 493 kts | 129° |
| 2026-05-04 11:19 | 20.61123 | 89.64148 | 34445 ft | 492 kts | 129° |
| 2026-05-04 11:20 | 20.59093 | 89.67030 | 34732 ft | 491 kts | 129° |
| 2026-05-04 11:20 | 20.57043 | 89.69941 | 35016 ft | 490 kts | 129° |
| 2026-05-04 11:20 | 20.54997 | 89.72843 | 35298 ft | 490 kts | 129° |
| 2026-05-04 11:20 | 20.52948 | 89.75749 | 35590 ft | 489 kts | 129° |
| 2026-05-04 11:22 | 20.38684 | 89.95934 | 37592 ft | 484 kts | 129° |
| 2026-05-04 11:22 | 20.36680 | 89.98765 | 37852 ft | 483 kts | 129° |
| 2026-05-04 11:23 | 20.34657 | 90.01621 | 38103 ft | 483 kts | 129° |
| 2026-05-04 11:23 | 20.32636 | 90.04473 | 38357 ft | 482 kts | 129° |
| 2026-05-04 11:24 | 20.20570 | 90.21473 | 38846 ft | 478 kts | 129° |
| 2026-05-04 11:25 | 20.18566 | 90.24291 | 38846 ft | 477 kts | 129° |
| 2026-05-04 11:25 | 20.14555 | 90.29930 | 38846 ft | 477 kts | 129° |
| 2026-05-04 11:27 | 19.96530 | 90.55200 | 38846 ft | 476 kts | 129° |
| 2026-05-04 11:28 | 19.92541 | 90.60777 | 38850 ft | 476 kts | 129° |
| 2026-05-04 11:28 | 19.88521 | 90.66382 | 38850 ft | 476 kts | 129° |
| 2026-05-04 11:29 | 19.84510 | 90.71971 | 38849 ft | 475 kts | 129° |
| 2026-05-04 11:29 | 19.80509 | 90.77564 | 38853 ft | 475 kts | 129° |
| 2026-05-04 11:33 | 19.52559 | 91.16398 | 38853 ft | 471 kts | 129° |
| 2026-05-04 11:33 | 19.48575 | 91.21912 | 38845 ft | 471 kts | 129° |
| 2026-05-04 11:34 | 19.44588 | 91.27426 | 38837 ft | 470 kts | 129° |
| 2026-05-04 11:34 | 19.40632 | 91.32891 | 38841 ft | 470 kts | 129° |
| 2026-05-04 11:35 | 19.36651 | 91.38386 | 38848 ft | 470 kts | 129° |
| 2026-05-04 11:35 | 19.32666 | 91.43883 | 38838 ft | 470 kts | 129° |
| 2026-05-04 11:36 | 19.28685 | 91.49367 | 38834 ft | 470 kts | 129° |
| 2026-05-04 11:36 | 19.24695 | 91.54861 | 38834 ft | 470 kts | 129° |
| 2026-05-04 11:37 | 19.20713 | 91.60338 | 38856 ft | 470 kts | 129° |
| 2026-05-04 11:37 | 19.16720 | 91.65824 | 38842 ft | 470 kts | 129° |
| 2026-05-04 11:38 | 19.12758 | 91.71264 | 38841 ft | 470 kts | 129° |
| 2026-05-04 11:38 | 19.08759 | 91.76749 | 38845 ft | 470 kts | 129° |
| 2026-05-04 11:39 | 19.04766 | 91.82223 | 38851 ft | 471 kts | 129° |
| 2026-05-04 11:41 | 18.90755 | 92.01386 | 38847 ft | 471 kts | 129° |
| 2026-05-04 11:41 | 18.86687 | 92.06828 | 38850 ft | 471 kts | 130° |
| 2026-05-04 11:42 | 18.82649 | 92.12222 | 38844 ft | 472 kts | 130° |
| 2026-05-04 11:42 | 18.78588 | 92.17657 | 38849 ft | 472 kts | 130° |
| 2026-05-04 11:43 | 18.74524 | 92.23093 | 38852 ft | 472 kts | 130° |
| 2026-05-04 11:43 | 18.70456 | 92.28531 | 38852 ft | 472 kts | 130° |
| 2026-05-04 11:44 | 18.66389 | 92.33960 | 38850 ft | 472 kts | 130° |
| 2026-05-04 11:44 | 18.62317 | 92.39393 | 38851 ft | 472 kts | 130° |
| 2026-05-04 11:45 | 18.58275 | 92.44781 | 38853 ft | 472 kts | 130° |
| 2026-05-04 11:45 | 18.54199 | 92.50208 | 38854 ft | 472 kts | 130° |
| 2026-05-04 11:46 | 18.50123 | 92.55631 | 38847 ft | 472 kts | 130° |
| 2026-05-04 11:46 | 18.46049 | 92.61047 | 38843 ft | 472 kts | 130° |
| 2026-05-04 11:47 | 18.41955 | 92.66485 | 38849 ft | 477 kts | 130° |
| 2026-05-04 11:47 | 18.37787 | 92.72016 | 38838 ft | 486 kts | 130° |
| 2026-05-04 11:48 | 18.33553 | 92.77630 | 38841 ft | 493 kts | 130° |
| 2026-05-04 11:48 | 18.29298 | 92.83268 | 38844 ft | 496 kts | 130° |
| 2026-05-04 11:49 | 18.25014 | 92.88939 | 38840 ft | 495 kts | 130° |
| 2026-05-04 11:49 | 18.20721 | 92.94616 | 38841 ft | 496 kts | 130° |
| 2026-05-04 11:50 | 18.16425 | 93.00293 | 38839 ft | 496 kts | 130° |
| 2026-05-04 11:50 | 18.12161 | 93.05922 | 38839 ft | 496 kts | 130° |
| 2026-05-04 11:51 | 18.07865 | 93.11590 | 38839 ft | 496 kts | 130° |
| 2026-05-04 11:51 | 18.03569 | 93.17251 | 38841 ft | 495 kts | 130° |
| 2026-05-04 11:52 | 17.99269 | 93.22912 | 38841 ft | 496 kts | 130° |
| 2026-05-04 11:52 | 17.94968 | 93.28571 | 38841 ft | 495 kts | 130° |
| 2026-05-04 11:53 | 17.90697 | 93.34185 | 38844 ft | 495 kts | 130° |
| 2026-05-04 11:53 | 17.86392 | 93.39839 | 38842 ft | 496 kts | 130° |
| 2026-05-04 11:55 | 17.69205 | 93.62362 | 38843 ft | 495 kts | 130° |
| 2026-05-04 11:56 | 17.64901 | 93.67991 | 38845 ft | 495 kts | 130° |
| 2026-05-04 11:56 | 17.60594 | 93.73619 | 38842 ft | 495 kts | 130° |
| 2026-05-04 11:57 | 17.57012 | 93.78295 | 38844 ft | 495 kts | 130° |
| 2026-05-04 11:57 | 17.52703 | 93.83916 | 38839 ft | 495 kts | 130° |
| 2026-05-04 11:58 | 17.48394 | 93.89533 | 38839 ft | 494 kts | 130° |
| 2026-05-04 11:58 | 17.43383 | 93.96058 | 38838 ft | 494 kts | 130° |
| 2026-05-04 11:59 | 17.39073 | 94.01667 | 38838 ft | 494 kts | 130° |
| 2026-05-04 11:59 | 17.35489 | 94.06326 | 38842 ft | 494 kts | 130° |
| 2026-05-04 12:00 | 17.31174 | 94.11932 | 38841 ft | 494 kts | 130° |
| 2026-05-04 12:00 | 17.26857 | 94.17536 | 38844 ft | 495 kts | 130° |
| 2026-05-04 12:01 | 17.22568 | 94.23099 | 38843 ft | 495 kts | 130° |
| 2026-05-04 12:02 | 17.07465 | 94.42650 | 38838 ft | 493 kts | 130° |
| 2026-05-04 12:03 | 17.03185 | 94.48182 | 38841 ft | 492 kts | 130° |
| 2026-05-04 12:03 | 16.98876 | 94.53745 | 38837 ft | 492 kts | 130° |
| 2026-05-04 12:04 | 16.94571 | 94.59298 | 38835 ft | 492 kts | 130° |
| 2026-05-04 12:04 | 16.90264 | 94.64852 | 38834 ft | 492 kts | 130° |
| 2026-05-04 12:05 | 16.85987 | 94.70361 | 38829 ft | 491 kts | 130° |
| 2026-05-04 12:05 | 16.81740 | 94.75951 | 38830 ft | 492 kts | 126° |
| 2026-05-04 12:06 | 16.78310 | 94.82127 | 38827 ft | 492 kts | 117° |
| 2026-05-04 12:06 | 16.75199 | 94.88484 | 38826 ft | 492 kts | 117° |
| 2026-05-04 12:07 | 16.72098 | 94.94789 | 38823 ft | 491 kts | 118° |
| 2026-05-04 12:07 | 16.68978 | 95.01124 | 38822 ft | 491 kts | 118° |
| 2026-05-04 12:08 | 16.65857 | 95.07455 | 38820 ft | 491 kts | 117° |
| 2026-05-04 12:08 | 16.62733 | 95.13788 | 38816 ft | 491 kts | 118° |
| 2026-05-04 12:09 | 16.59632 | 95.20066 | 38815 ft | 490 kts | 118° |
| 2026-05-04 12:09 | 16.56507 | 95.26388 | 38820 ft | 490 kts | 118° |
| 2026-05-04 12:10 | 16.53383 | 95.32703 | 38820 ft | 490 kts | 118° |
| 2026-05-04 12:10 | 16.50257 | 95.39015 | 38817 ft | 490 kts | 118° |
| 2026-05-04 12:11 | 16.47148 | 95.45286 | 38816 ft | 490 kts | 118° |
| 2026-05-04 12:11 | 16.44016 | 95.51599 | 38819 ft | 491 kts | 118° |
| 2026-05-04 12:12 | 16.40882 | 95.57909 | 38823 ft | 490 kts | 118° |
| 2026-05-04 12:12 | 16.37745 | 95.64222 | 38816 ft | 491 kts | 118° |
| 2026-05-04 12:14 | 16.25196 | 95.89409 | 38827 ft | 491 kts | 118° |
| 2026-05-04 12:15 | 16.22047 | 95.95715 | 38826 ft | 491 kts | 118° |
| 2026-05-04 12:15 | 16.18918 | 96.01976 | 38828 ft | 491 kts | 118° |
| 2026-05-04 12:16 | 16.15766 | 96.08275 | 38830 ft | 491 kts | 118° |
| 2026-05-04 12:16 | 16.12613 | 96.14573 | 38828 ft | 491 kts | 118° |
| 2026-05-04 12:17 | 16.09463 | 96.20858 | 38823 ft | 490 kts | 118° |
| 2026-05-04 12:17 | 16.06309 | 96.27147 | 38827 ft | 490 kts | 118° |
| 2026-05-04 12:18 | 16.03175 | 96.33389 | 38839 ft | 490 kts | 118° |
| 2026-05-04 12:18 | 16.00020 | 96.39667 | 38834 ft | 490 kts | 118° |
| 2026-05-04 12:19 | 15.97748 | 96.44185 | 38825 ft | 489 kts | 118° |
| 2026-05-04 12:19 | 15.94595 | 96.50451 | 38832 ft | 489 kts | 118° |
| 2026-05-04 12:20 | 15.91463 | 96.56667 | 38831 ft | 489 kts | 118° |
| 2026-05-04 12:20 | 15.88309 | 96.62923 | 38832 ft | 489 kts | 118° |
| 2026-05-04 12:21 | 15.85325 | 96.68837 | 38835 ft | 488 kts | 118° |
| 2026-05-04 12:21 | 15.82172 | 96.75081 | 38837 ft | 488 kts | 118° |
| 2026-05-04 12:22 | 15.79015 | 96.81326 | 38838 ft | 488 kts | 118° |
| 2026-05-04 12:22 | 15.75882 | 96.87518 | 38835 ft | 488 kts | 118° |
| 2026-05-04 12:23 | 15.72726 | 96.93752 | 38835 ft | 487 kts | 118° |
| 2026-05-04 12:23 | 15.69570 | 96.99978 | 38837 ft | 487 kts | 118° |
| 2026-05-04 12:24 | 15.66414 | 97.06201 | 38834 ft | 487 kts | 118° |
| 2026-05-04 12:24 | 15.63758 | 97.11433 | 38831 ft | 487 kts | 118° |
| 2026-05-04 12:25 | 15.62406 | 97.14095 | 38836 ft | 487 kts | 118° |
| 2026-05-04 12:25 | 15.59241 | 97.20320 | 38829 ft | 488 kts | 118° |
| 2026-05-04 12:26 | 15.56079 | 97.26537 | 38825 ft | 487 kts | 118° |
| 2026-05-04 12:26 | 15.52917 | 97.32748 | 38825 ft | 487 kts | 118° |
| 2026-05-04 12:27 | 15.49754 | 97.38956 | 38826 ft | 487 kts | 118° |
| 2026-05-04 12:27 | 15.46591 | 97.45160 | 38828 ft | 487 kts | 118° |
| 2026-05-04 12:28 | 15.43433 | 97.51369 | 38826 ft | 486 kts | 117° |
| 2026-05-04 12:28 | 15.40411 | 97.57644 | 38825 ft | 487 kts | 117° |
| 2026-05-04 12:29 | 15.37401 | 97.63938 | 38834 ft | 486 kts | 117° |
| 2026-05-04 12:29 | 15.34381 | 97.70204 | 38842 ft | 486 kts | 117° |
| 2026-05-04 12:30 | 15.31372 | 97.76429 | 38843 ft | 486 kts | 117° |
| 2026-05-04 12:30 | 15.28341 | 97.82692 | 38852 ft | 486 kts | 117° |
| 2026-05-04 12:31 | 15.25311 | 97.88949 | 38853 ft | 486 kts | 117° |
| 2026-05-04 12:31 | 15.22278 | 97.95209 | 38859 ft | 485 kts | 117° |
| 2026-05-04 12:32 | 15.17730 | 98.04582 | 38866 ft | 486 kts | 117° |
| 2026-05-04 12:33 | 15.14694 | 98.10832 | 38866 ft | 485 kts | 117° |
| 2026-05-04 12:33 | 15.11656 | 98.17083 | 38879 ft | 485 kts | 117° |
| 2026-05-04 12:34 | 15.08629 | 98.23288 | 38874 ft | 486 kts | 117° |
| 2026-05-04 12:34 | 15.05534 | 98.29499 | 38883 ft | 486 kts | 118° |
| 2026-05-04 12:35 | 15.02431 | 98.35721 | 38890 ft | 486 kts | 118° |
| 2026-05-04 12:35 | 14.99332 | 98.41940 | 38894 ft | 486 kts | 118° |
| 2026-05-04 12:36 | 14.96235 | 98.48155 | 38892 ft | 486 kts | 118° |
| 2026-05-04 12:36 | 14.93134 | 98.54373 | 38897 ft | 486 kts | 118° |
| 2026-05-04 12:37 | 14.90035 | 98.60582 | 38896 ft | 486 kts | 118° |
| 2026-05-04 12:37 | 14.86934 | 98.66788 | 38901 ft | 486 kts | 118° |
| 2026-05-04 12:38 | 14.83849 | 98.72960 | 38901 ft | 485 kts | 118° |
| 2026-05-04 12:38 | 14.80749 | 98.79154 | 38897 ft | 485 kts | 118° |
| 2026-05-04 12:39 | 14.77645 | 98.85352 | 38898 ft | 485 kts | 118° |
| 2026-05-04 12:39 | 14.74538 | 98.91551 | 38900 ft | 485 kts | 118° |
| 2026-05-04 12:40 | 14.71452 | 98.97703 | 38910 ft | 485 kts | 118° |
| 2026-05-04 12:40 | 14.68342 | 99.03898 | 38902 ft | 486 kts | 118° |
| 2026-05-04 12:41 | 14.65274 | 99.10004 | 38901 ft | 486 kts | 118° |
| 2026-05-04 12:41 | 14.62158 | 99.16201 | 38659 ft | 484 kts | 118° |
| 2026-05-04 12:41 | 14.60619 | 99.19261 | 37973 ft | 478 kts | 118° |
| 2026-05-04 12:42 | 14.59084 | 99.22310 | 36875 ft | 479 kts | 118° |
| 2026-05-04 12:42 | 14.57539 | 99.25378 | 35651 ft | 483 kts | 118° |
| 2026-05-04 12:42 | 14.55980 | 99.28474 | 34506 ft | 486 kts | 118° |
| 2026-05-04 12:42 | 14.54428 | 99.31555 | 33744 ft | 479 kts | 118° |
| 2026-05-04 12:43 | 14.52904 | 99.34579 | 32957 ft | 471 kts | 118° |
| 2026-05-04 12:43 | 14.51401 | 99.37559 | 32032 ft | 467 kts | 118° |
| 2026-05-04 12:43 | 14.49915 | 99.40506 | 31244 ft | 460 kts | 118° |
| 2026-05-04 12:43 | 14.48455 | 99.43396 | 30400 ft | 457 kts | 118° |
| 2026-05-04 12:44 | 14.46987 | 99.46304 | 29442 ft | 454 kts | 118° |
| 2026-05-04 12:44 | 14.45567 | 99.49199 | 28805 ft | 456 kts | 115° |
| 2026-05-04 12:44 | 14.44449 | 99.52303 | 28355 ft | 466 kts | 107° |
| 2026-05-04 12:44 | 14.43740 | 99.55581 | 27703 ft | 468 kts | 98° |
| 2026-05-04 12:45 | 14.43451 | 99.58921 | 27023 ft | 468 kts | 93° |
| 2026-05-04 12:45 | 14.43255 | 99.62268 | 26344 ft | 466 kts | 94° |
| 2026-05-04 12:45 | 14.43051 | 99.65600 | 25710 ft | 462 kts | 94° |
| 2026-05-04 12:45 | 14.42845 | 99.68894 | 25078 ft | 457 kts | 94° |
| 2026-05-04 12:46 | 14.42638 | 99.72162 | 24422 ft | 454 kts | 94° |
| 2026-05-04 12:46 | 14.42433 | 99.75399 | 23778 ft | 450 kts | 94° |
| 2026-05-04 12:46 | 14.42228 | 99.78619 | 23095 ft | 447 kts | 94° |
| 2026-05-04 12:46 | 14.42028 | 99.81761 | 22456 ft | 441 kts | 94° |
| 2026-05-04 12:47 | 14.41828 | 99.84894 | 21823 ft | 435 kts | 94° |
| 2026-05-04 12:47 | 14.41630 | 99.87986 | 21194 ft | 429 kts | 94° |
| 2026-05-04 12:47 | 14.41434 | 99.91052 | 20519 ft | 426 kts | 94° |
| 2026-05-04 12:47 | 14.41239 | 99.94083 | 19906 ft | 421 kts | 94° |
| 2026-05-04 12:48 | 14.41046 | 99.97080 | 19288 ft | 416 kts | 94° |
| 2026-05-04 12:48 | 14.40857 | 100.00011 | 18683 ft | 412 kts | 94° |
| 2026-05-04 12:48 | 14.40668 | 100.02936 | 18320 ft | 402 kts | 93° |
| 2026-05-04 12:48 | 14.40430 | 100.05751 | 18070 ft | 386 kts | 98° |
| 2026-05-04 12:49 | 14.39884 | 100.08423 | 17424 ft | 375 kts | 105° |
| 2026-05-04 12:49 | 14.39224 | 100.10984 | 17173 ft | 369 kts | 104° |
| 2026-05-04 12:49 | 14.38573 | 100.13570 | 16919 ft | 373 kts | 104° |
| 2026-05-04 12:49 | 14.37927 | 100.16152 | 16619 ft | 369 kts | 104° |
| 2026-05-04 12:50 | 14.37291 | 100.18704 | 16318 ft | 367 kts | 104° |
| 2026-05-04 12:50 | 14.36658 | 100.21243 | 16029 ft | 365 kts | 104° |
| 2026-05-04 12:50 | 14.36024 | 100.23776 | 15735 ft | 363 kts | 104° |
| 2026-05-04 12:50 | 14.35391 | 100.26309 | 15439 ft | 365 kts | 104° |
| 2026-05-04 12:51 | 14.34761 | 100.28825 | 15150 ft | 359 kts | 104° |
| 2026-05-04 12:51 | 14.34140 | 100.31301 | 14866 ft | 356 kts | 104° |
| 2026-05-04 12:51 | 14.33521 | 100.33771 | 14587 ft | 355 kts | 104° |
| 2026-05-04 12:51 | 14.32904 | 100.36233 | 14300 ft | 353 kts | 104° |
| 2026-05-04 12:52 | 14.32292 | 100.38673 | 14089 ft | 348 kts | 104° |
| 2026-05-04 12:52 | 14.31699 | 100.41034 | 13952 ft | 331 kts | 104° |
| 2026-05-04 12:52 | 14.31136 | 100.43275 | 13634 ft | 317 kts | 104° |
| 2026-05-04 12:52 | 14.30589 | 100.45452 | 13193 ft | 307 kts | 104° |
| 2026-05-04 12:53 | 14.30065 | 100.47540 | 12988 ft | 307 kts | 104° |
| 2026-05-04 12:53 | 14.29521 | 100.49703 | 12736 ft | 312 kts | 104° |
| 2026-05-04 12:53 | 14.28975 | 100.51874 | 12476 ft | 306 kts | 104° |
| 2026-05-04 12:53 | 14.28452 | 100.53954 | 12232 ft | 304 kts | 104° |
| 2026-05-04 12:54 | 14.27919 | 100.56075 | 11986 ft | 306 kts | 104° |
| 2026-05-04 12:54 | 14.27385 | 100.58193 | 11738 ft | 303 kts | 104° |
| 2026-05-04 12:54 | 14.26858 | 100.60288 | 11494 ft | 302 kts | 104° |
| 2026-05-04 12:54 | 14.26327 | 100.62383 | 11253 ft | 301 kts | 106° |
| 2026-05-04 12:55 | 14.25395 | 100.64287 | 11016 ft | 300 kts | 130° |
| 2026-05-04 12:55 | 14.23770 | 100.65615 | 10793 ft | 300 kts | 155° |
| 2026-05-04 12:55 | 14.21758 | 100.66096 | 10673 ft | 299 kts | 180° |
| 2026-05-04 12:55 | 14.19707 | 100.65731 | 10602 ft | 301 kts | 194° |
| 2026-05-04 12:56 | 14.17676 | 100.65180 | 10413 ft | 301 kts | 194° |
| 2026-05-04 12:56 | 14.15669 | 100.64630 | 10224 ft | 298 kts | 194° |
| 2026-05-04 12:56 | 14.13655 | 100.64086 | 10034 ft | 297 kts | 194° |
| 2026-05-04 12:56 | 14.12329 | 100.63731 | 9914 ft | 297 kts | 194° |
| 2026-05-04 12:57 | 14.09680 | 100.63031 | 9675 ft | 295 kts | 194° |
| 2026-05-04 12:57 | 14.07725 | 100.62516 | 9583 ft | 285 kts | 193° |
| 2026-05-04 12:57 | 14.05842 | 100.62021 | 9476 ft | 273 kts | 193° |
| 2026-05-04 12:57 | 14.04034 | 100.61547 | 9315 ft | 264 kts | 193° |
| 2026-05-04 12:58 | 14.02270 | 100.61113 | 9097 ft | 256 kts | 186° |
| 2026-05-04 12:58 | 14.00541 | 100.61309 | 8911 ft | 252 kts | 157° |
| 2026-05-04 12:58 | 13.99133 | 100.62350 | 8710 ft | 253 kts | 128° |
| 2026-05-04 12:58 | 13.98382 | 100.63970 | 8530 ft | 252 kts | 105° |
| 2026-05-04 12:59 | 13.97942 | 100.65711 | 8330 ft | 251 kts | 105° |
| 2026-05-04 12:59 | 13.97508 | 100.67441 | 8126 ft | 249 kts | 105° |
| 2026-05-04 12:59 | 13.97115 | 100.69178 | 7930 ft | 250 kts | 95° |
| 2026-05-04 12:59 | 13.97380 | 100.70912 | 7741 ft | 251 kts | 65° |
| 2026-05-04 13:00 | 13.98433 | 100.72269 | 7537 ft | 238 kts | 35° |
| 2026-05-04 13:00 | 13.99920 | 100.72904 | 7293 ft | 230 kts | 15° |
| 2026-05-04 13:00 | 14.01351 | 100.73580 | 6885 ft | 227 kts | 43° |
| 2026-05-04 13:00 | 14.02260 | 100.74901 | 6202 ft | 234 kts | 73° |
| 2026-05-04 13:01 | 14.02371 | 100.76573 | 5500 ft | 238 kts | 103° |
| 2026-05-04 13:01 | 14.01643 | 100.78078 | 4970 ft | 237 kts | 133° |
| 2026-05-04 13:01 | 14.00820 | 100.78809 | 4641 ft | 236 kts | 145° |
| 2026-05-04 13:01 | 13.99417 | 100.79631 | 4285 ft | 228 kts | 153° |
| 2026-05-04 13:02 | 13.97968 | 100.80333 | 3713 ft | 231 kts | 155° |
| 2026-05-04 13:02 | 13.96508 | 100.81022 | 3225 ft | 230 kts | 155° |
| 2026-05-04 13:02 | 13.95069 | 100.81722 | 2762 ft | 228 kts | 154° |
| 2026-05-04 13:02 | 13.93595 | 100.82283 | 2287 ft | 226 kts | 172° |
| 2026-05-04 13:03 | 13.92081 | 100.82136 | 2076 ft | 212 kts | 195° |
| 2026-05-04 13:03 | 13.90727 | 100.81755 | 2001 ft | 196 kts | 193° |
| 2026-05-04 13:03 | 13.89463 | 100.81420 | 1995 ft | 184 kts | 193° |
| 2026-05-04 13:03 | 13.88203 | 100.81095 | 2022 ft | 184 kts | 193° |
| 2026-05-04 13:04 | 13.86967 | 100.80774 | 1986 ft | 184 kts | 193° |
| 2026-05-04 13:04 | 13.85733 | 100.80454 | 1977 ft | 176 kts | 193° |
| 2026-05-04 13:04 | 13.84608 | 100.80158 | 1887 ft | 162 kts | 193° |
| 2026-05-04 13:04 | 13.83524 | 100.79873 | 1712 ft | 159 kts | 193° |
| 2026-05-04 13:05 | 13.82441 | 100.79590 | 1662 ft | 161 kts | 193° |
| 2026-05-04 13:05 | 13.81367 | 100.79309 | 1608 ft | 160 kts | 193° |
| 2026-05-04 13:05 | 13.80263 | 100.79020 | 1602 ft | 161 kts | 193° |
| 2026-05-04 13:05 | 13.79179 | 100.78735 | 1596 ft | 161 kts | 193° |
| 2026-05-04 13:06 | 13.78107 | 100.78452 | 1610 ft | 161 kts | 193° |
| 2026-05-04 13:06 | 13.77012 | 100.78166 | 1600 ft | 162 kts | 194° |
| 2026-05-04 13:06 | 13.75928 | 100.77881 | 1473 ft | 159 kts | 193° |
| 2026-05-04 13:06 | 13.74907 | 100.77611 | 1308 ft | 143 kts | 193° |
| 2026-05-04 13:07 | 13.73987 | 100.77370 | 1089 ft | 131 kts | 193° |
| 2026-05-04 13:07 | 13.73130 | 100.77143 | 847 ft | 126 kts | 193° |
| 2026-05-04 13:07 | 13.72291 | 100.76920 | 699 ft | 130 kts | 193° |
| 2026-05-04 13:07 | 13.71397 | 100.76687 | 495 ft | 133 kts | 192° |
| 2026-05-04 13:08 | 13.70496 | 100.76453 | 346 ft | 132 kts | 194° |
| 2026-05-04 13:08 | 13.69601 | 100.76222 | 165 ft | 135 kts | 194° |
| 2026-05-04 13:08 | 13.68691 | 100.75977 | 18 ft | 131 kts | 195° |
| 2026-05-04 13:08 | 13.67981 | 100.75789 | 11 ft | 76 kts | 194° |
| 2026-05-04 13:09 | 13.67683 | 100.75710 | 12 ft | 23 kts | 198° |
| 2026-05-04 13:09 | 13.67535 | 100.75620 | 12 ft | 27 kts | 220° |
| 2026-05-04 13:09 | 13.67452 | 100.75539 | 13 ft | 0 kts | 230° |
| 2026-05-04 13:11 | 13.67444 | 100.75519 | 13 ft | 6 kts | 256° |
| 2026-05-04 13:11 | 13.67467 | 100.75477 | 13 ft | 9 kts | 331° |
| 2026-05-04 13:12 | 13.67538 | 100.75483 | 13 ft | 12 kts | 12° |
| 2026-05-04 13:12 | 13.67605 | 100.75435 | 13 ft | 14 kts | 299° |
| 2026-05-04 13:12 | 13.67697 | 100.75425 | 13 ft | 16 kts | 16° |
| 2026-05-04 13:12 | 13.67785 | 100.75448 | 13 ft | 3 kts | 15° |
| 2026-05-04 13:15 | 13.67801 | 100.75453 | 13 ft | 5 kts | 15° |
| 2026-05-04 13:15 | 13.67856 | 100.75467 | 13 ft | 11 kts | 14° |
| 2026-05-04 13:15 | 13.67942 | 100.75489 | 13 ft | 15 kts | 14° |
| 2026-05-04 13:16 | 13.68052 | 100.75518 | 13 ft | 18 kts | 14° |
| 2026-05-04 13:16 | 13.68182 | 100.75552 | 14 ft | 21 kts | 14° |
| 2026-05-04 13:16 | 13.68331 | 100.75591 | 13 ft | 23 kts | 14° |
| 2026-05-04 13:16 | 13.68497 | 100.75635 | 13 ft | 26 kts | 14° |
| 2026-05-04 13:17 | 13.68677 | 100.75682 | 13 ft | 28 kts | 14° |
| 2026-05-04 13:17 | 13.68869 | 100.75732 | 13 ft | 29 kts | 13° |
| 2026-05-04 13:17 | 13.69050 | 100.75780 | 13 ft | 25 kts | 14° |
| 2026-05-04 13:17 | 13.69136 | 100.75742 | 13 ft | 16 kts | 289° |
| 2026-05-04 13:18 | 13.69180 | 100.75631 | 13 ft | 18 kts | 325° |
| 2026-05-04 13:18 | 13.69244 | 100.75627 | 13 ft | 2 kts | 346° |
| 2026-05-04 13:18 | 13.69262 | 100.75605 | 13 ft | 6 kts | 293° |
| 2026-05-04 13:18 | 13.69275 | 100.75551 | 13 ft | 10 kts | 284° |
| 2026-05-04 13:19 | 13.69278 | 100.75540 | 13 ft | 0 kts | 284° |